TAF Text Data
IDs:
Format:
Raw Decoded Include METAR

Data at: 1138 UTC 21 Jan 2020

KOGB 211134Z 2112/2212 02006KT P6SM FEW060
  FM211300 01012G20KT P6SM FEW060
  FM220000 01008KT P6SM SKC